Time;durP1;ratioP1;P1;durP2;ratioP2;P2;SDS_P1;SDS_P2;PMS_P1;PMS_P2;Temp;Humidity;BMP_temperature;BMP_pressure;BME280_temperature;BME280_humidity;BME280_pressure;Samples;Min_cycle;Max_cycle;Signal;HPM_P1;HPM_P2
2023/12/27 00:01:00;;;;;;;1.10;0.60;;;;;;;13.39;45.03;101436.59;6125027;23;20835;-87
2023/12/27 00:03:26;;;;;;;0.70;0.50;;;;;;;13.47;44.76;101438.44;6095604;23;20380;-84
2023/12/27 00:05:51;;;;;;;0.93;0.52;;;;;;;13.52;44.43;101457.41;6105273;23;20389;-86
2023/12/27 00:08:17;;;;;;;0.20;0.20;;;;;;;13.53;44.51;101456.38;6105035;23;20365;-84
2023/12/27 00:10:42;;;;;;;1.30;0.70;;;;;;;13.57;44.19;101459.53;6104978;23;20357;-88
2023/12/27 00:13:08;;;;;;;2.22;0.35;;;;;;;13.52;44.38;101452.06;6094244;23;20370;-86
2023/12/27 00:15:34;;;;;;;0.20;0.20;;;;;;;13.50;44.76;101456.72;6069814;23;20373;-86
2023/12/27 00:17:59;;;;;;;0.40;0.40;;;;;;;13.58;44.25;101455.88;6069910;23;20361;-87
2023/12/27 00:20:34;;;;;;;0.40;0.40;;;;;;;13.68;44.35;101469.00;6109375;23;20404;-88
2023/12/27 00:23:00;;;;;;;0.47;0.47;;;;;;;13.68;44.12;101480.47;6096940;23;20444;-88
2023/12/27 00:25:25;;;;;;;0.22;0.22;;;;;;;13.65;44.07;101490.63;6112326;23;20365;-84
2023/12/27 00:27:51;;;;;;;0.30;0.30;;;;;;;13.65;44.28;101485.31;6118185;23;20401;-86
2023/12/27 00:30:18;;;;;;;0.20;0.20;;;;;;;13.72;44.06;101484.47;6089026;23;20373;-89
2023/12/27 00:32:44;;;;;;;0.40;0.40;;;;;;;13.76;43.62;101499.13;6100222;23;20369;-89
2023/12/27 00:35:13;;;;;;;0.30;0.30;;;;;;;13.73;44.08;101503.94;6122702;23;20399;-88
2023/12/27 00:37:39;;;;;;;0.22;0.22;;;;;;;13.70;44.20;101501.63;6127824;23;20380;-88
2023/12/27 00:40:05;;;;;;;0.20;0.20;;;;;;;13.57;44.24;101500.31;6125958;23;20360;-88
2023/12/27 00:42:35;;;;;;;4.03;0.95;;;;;;;13.50;44.27;101501.19;6125466;23;20367;-87
2023/12/27 00:45:01;;;;;;;0.88;0.50;;;;;;;13.48;44.54;101505.84;6130581;23;20359;-86
2023/12/27 00:47:26;;;;;;;0.30;0.30;;;;;;;13.38;44.56;101504.19;6112084;23;20415;-88
2023/12/27 00:49:52;;;;;;;0.20;0.20;;;;;;;13.48;44.72;101516.50;6121613;23;20384;-85
2023/12/27 00:52:17;;;;;;;0.32;0.32;;;;;;;13.45;44.89;101520.34;6112916;23;20443;-87
2023/12/27 00:54:46;;;;;;;0.10;0.10;;;;;;;13.56;44.96;101529.81;6127085;23;20364;-89
2023/12/27 00:57:12;;;;;;;0.20;0.20;;;;;;;13.58;44.70;101531.31;6127828;23;20387;-89
2023/12/27 00:59:37;;;;;;;0.40;0.40;;;;;;;13.62;44.81;101542.44;6126741;23;20426;-88
2023/12/27 01:02:03;;;;;;;0.50;0.50;;;;;;;13.73;44.62;101547.41;6129252;23;20360;-89
2023/12/27 01:04:29;;;;;;;0.20;0.20;;;;;;;13.71;44.57;101549.41;6127352;23;20395;-87
2023/12/27 01:06:54;;;;;;;0.20;0.20;;;;;;;13.62;44.96;101541.63;6102475;23;20360;-85
2023/12/27 01:09:22;;;;;;;0.50;0.50;;;;;;;13.72;45.18;101545.75;6125134;23;20359;-85
2023/12/27 01:11:48;;;;;;;0.90;0.68;;;;;;;13.62;45.16;101547.78;6125549;23;20447;-85
2023/12/27 01:14:13;;;;;;;0.43;0.43;;;;;;;13.58;44.93;101539.28;6124899;23;20851;-86
2023/12/27 01:16:39;;;;;;;0.30;0.30;;;;;;;13.68;45.40;101546.25;6125444;23;20471;-88
2023/12/27 01:19:04;;;;;;;0.20;0.20;;;;;;;13.61;45.11;101547.94;6124001;23;20428;-88
2023/12/27 01:21:30;;;;;;;0.20;0.20;;;;;;;13.55;45.20;101560.94;6124120;23;20359;-87
2023/12/27 01:23:56;;;;;;;0.10;0.10;;;;;;;13.45;45.54;101554.97;6125907;23;20353;-86
2023/12/27 01:26:21;;;;;;;0.10;0.10;;;;;;;13.27;46.15;101555.13;6099234;23;20399;-89
2023/12/27 01:28:47;;;;;;;0.30;0.30;;;;;;;13.03;47.41;101563.91;6125870;23;20364;-87
2023/12/27 01:31:13;;;;;;;0.70;0.50;;;;;;;12.92;47.95;101565.06;6124951;23;20436;-88
2023/12/27 01:33:40;;;;;;;0.35;0.35;;;;;;;12.92;47.78;101554.41;6101939;23;20364;-87
2023/12/27 01:36:07;;;;;;;0.20;0.20;;;;;;;13.07;47.25;101567.06;6124787;23;20376;-86
2023/12/27 01:38:32;;;;;;;0.40;0.40;;;;;;;13.05;47.87;101571.75;6100118;23;21231;-87
2023/12/27 01:40:59;;;;;;;0.32;0.32;;;;;;;13.09;47.34;101570.41;6099852;23;20364;-89
2023/12/27 01:43:25;;;;;;;0.43;0.43;;;;;;;13.19;47.16;101579.88;6124939;23;20372;-88
2023/12/27 01:45:50;;;;;;;0.28;0.28;;;;;;;13.15;47.58;101585.72;6126443;23;20465;-87
2023/12/27 01:48:21;;;;;;;0.55;0.50;;;;;;;13.17;47.53;101578.41;6123351;23;20387;-87
2023/12/27 01:50:49;;;;;;;0.20;0.20;;;;;;;13.15;47.57;101580.41;6125623;23;20375;-88
2023/12/27 01:53:16;;;;;;;0.20;0.20;;;;;;;13.16;47.70;101588.22;6124639;23;20456;-86
2023/12/27 01:55:43;;;;;;;0.30;0.30;;;;;;;13.23;47.57;101590.22;6099740;23;20367;-85
2023/12/27 01:58:11;;;;;;;0.30;0.30;;;;;;;13.17;47.55;101584.56;6099229;23;20364;-86
2023/12/27 02:00:39;;;;;;;0.60;0.60;;;;;;;13.29;47.33;101586.88;6125946;23;20708;-88
2023/12/27 02:03:05;;;;;;;0.20;0.20;;;;;;;13.36;47.06;101601.22;6125593;23;20824;-88
2023/12/27 02:05:31;;;;;;;0.70;0.50;;;;;;;13.41;46.57;101588.25;6123295;23;20410;-86
2023/12/27 02:07:59;;;;;;;0.60;0.60;;;;;;;13.39;46.80;101584.91;6123194;23;20447;-87
2023/12/27 02:10:26;;;;;;;0.20;0.20;;;;;;;13.46;46.76;101583.25;6125739;23;20364;-90
2023/12/27 02:12:51;;;;;;;0.60;0.60;;;;;;;13.52;46.68;101587.94;6123477;23;20394;-88
2023/12/27 02:15:17;;;;;;;0.50;0.50;;;;;;;13.43;46.91;101588.91;6124193;23;20367;-85
2023/12/27 02:17:43;;;;;;;0.30;0.30;;;;;;;13.42;47.02;101595.25;6123716;23;20380;-86
2023/12/27 02:20:09;;;;;;;0.40;0.40;;;;;;;13.25;47.11;101597.03;6124138;23;20372;-88
2023/12/27 02:22:38;;;;;;;0.10;0.10;;;;;;;13.00;48.37;101590.88;6124534;23;20364;-88
2023/12/27 02:25:05;;;;;;;0.38;0.38;;;;;;;12.71;49.00;101599.28;6099735;23;20364;-86
2023/12/27 02:27:31;;;;;;;0.50;0.50;;;;;;;12.69;49.10;101606.59;6097871;23;20368;-85
2023/12/27 02:29:56;;;;;;;0.30;0.30;;;;;;;12.89;48.59;101594.69;6099105;23;20490;-85
2023/12/27 02:32:23;;;;;;;0.20;0.20;;;;;;;13.00;48.52;101596.19;6099017;23;20360;-85
2023/12/27 02:34:49;;;;;;;0.28;0.28;;;;;;;13.00;48.12;101604.19;6099458;23;20384;-89
2023/12/27 02:37:15;;;;;;;1.35;1.15;;;;;;;13.03;48.21;101587.88;6127367;23;20415;-88
2023/12/27 02:39:40;;;;;;;0.75;0.55;;;;;;;13.03;48.34;101590.53;6135062;23;20745;-87
2023/12/27 02:42:06;;;;;;;0.80;0.80;;;;;;;13.00;48.31;101605.00;6120238;23;20352;-85
2023/12/27 02:44:31;;;;;;;0.17;0.17;;;;;;;13.07;48.32;101607.00;6119049;23;20716;-85
2023/12/27 02:46:57;;;;;;;0.30;0.30;;;;;;;13.08;48.06;101598.03;6132691;23;20371;-86
2023/12/27 02:49:23;;;;;;;0.47;0.47;;;;;;;13.10;47.81;101596.03;6128508;23;20366;-86
2023/12/27 02:51:48;;;;;;;0.30;0.30;;;;;;;13.13;47.92;101604.53;6103015;23;20844;-87
2023/12/27 02:54:14;;;;;;;0.43;0.43;;;;;;;13.16;48.08;101612.19;6127415;23;20415;-86
2023/12/27 02:56:40;;;;;;;0.70;0.70;;;;;;;13.23;47.89;101617.66;6129242;23;20376;-88
2023/12/27 02:59:08;;;;;;;0.50;0.50;;;;;;;13.13;48.21;101622.34;6127666;23;20701;-88
2023/12/27 03:01:34;;;;;;;0.30;0.30;;;;;;;13.06;48.26;101624.00;6113524;23;20362;-87
2023/12/27 03:04:00;;;;;;;0.30;0.30;;;;;;;13.13;48.16;101635.66;6118394;23;20344;-85
2023/12/27 03:06:25;;;;;;;0.23;0.23;;;;;;;13.13;48.50;101639.13;6114118;23;20709;-86
2023/12/27 03:08:53;;;;;;;0.25;0.25;;;;;;;13.11;48.30;101641.13;6124236;23;20444;-89
2023/12/27 03:11:19;;;;;;;0.30;0.30;;;;;;;13.22;47.89;101631.13;6122810;23;20364;-88
2023/12/27 03:13:45;;;;;;;0.30;0.30;;;;;;;13.27;48.03;101645.66;6122380;23;20382;-86
2023/12/27 03:16:11;;;;;;;0.70;0.70;;;;;;;13.27;48.11;101653.63;6098285;23;20455;-87
2023/12/27 03:18:38;;;;;;;0.32;0.32;;;;;;;13.17;48.59;101658.28;6099453;23;20435;-88
2023/12/27 03:21:04;;;;;;;0.60;0.40;;;;;;;13.16;48.50;101641.47;6125348;23;20360;-86
2023/12/27 03:23:29;;;;;;;1.33;0.82;;;;;;;13.17;48.39;101644.97;6125214;23;20360;-88
2023/12/27 03:25:55;;;;;;;0.90;0.50;;;;;;;13.19;48.41;101651.78;6127048;23;20363;-87
2023/12/27 03:28:22;;;;;;;0.35;0.30;;;;;;;13.19;48.18;101640.31;6102477;23;20468;-87
2023/12/27 03:30:47;;;;;;;0.10;0.10;;;;;;;13.17;48.50;101644.97;6100933;23;20384;-86
2023/12/27 03:33:13;;;;;;;1.85;1.75;;;;;;;13.27;48.36;101647.47;6101354;23;20352;-87
2023/12/27 03:35:39;;;;;;;0.70;0.50;;;;;;;13.33;48.21;101654.84;6125281;23;20352;-87
2023/12/27 03:38:05;;;;;;;0.30;0.30;;;;;;;13.32;48.30;101656.66;6098935;23;20376;-89
2023/12/27 03:40:30;;;;;;;0.40;0.40;;;;;;;13.37;48.40;101658.81;6100364;23;20352;-87
2023/12/27 03:42:56;;;;;;;0.30;0.30;;;;;;;13.34;48.13;101646.69;6099824;23;20747;-86
2023/12/27 03:45:22;;;;;;;0.60;0.40;;;;;;;13.35;47.95;101661.66;6124057;23;20395;-87
2023/12/27 03:47:47;;;;;;;0.73;0.73;;;;;;;13.35;48.07;101656.31;6124499;23;20377;-88
2023/12/27 03:50:13;;;;;;;0.40;0.40;;;;;;;13.43;47.75;101658.16;6124298;23;20364;-86
2023/12/27 03:52:39;;;;;;;0.30;0.30;;;;;;;13.46;47.72;101659.66;6124376;23;20364;-87
2023/12/27 03:55:05;;;;;;;0.20;0.20;;;;;;;13.47;47.86;101667.50;6125194;23;20378;-85
2023/12/27 03:57:31;;;;;;;0.40;0.30;;;;;;;13.45;47.61;101672.16;6124494;23;20411;-84
2023/12/27 03:59:56;;;;;;;0.30;0.30;;;;;;;13.45;47.74;101677.50;6100301;23;20391;-85
2023/12/27 04:02:22;;;;;;;0.40;0.40;;;;;;;13.42;47.82;101683.13;6124780;23;20376;-85
2023/12/27 04:04:47;;;;;;;0.50;0.50;;;;;;;13.33;47.87;101689.44;6124618;23;20410;-86
2023/12/27 04:07:13;;;;;;;0.40;0.40;;;;;;;13.41;47.82;101683.28;6127642;23;20371;-87
2023/12/27 04:09:40;;;;;;;0.30;0.30;;;;;;;13.40;47.52;101695.78;6131486;23;20364;-86
2023/12/27 04:12:07;;;;;;;0.30;0.30;;;;;;;13.18;48.03;101702.50;6130416;23;20376;-86
2023/12/27 04:14:32;;;;;;;0.20;0.20;;;;;;;13.04;48.46;101713.81;6106587;23;20363;-86
2023/12/27 04:16:58;;;;;;;0.50;0.50;;;;;;;13.03;48.37;101720.13;6132541;23;20384;-85
2023/12/27 04:19:24;;;;;;;0.10;0.10;;;;;;;13.01;48.20;101713.13;6135099;23;20367;-85
2023/12/27 04:21:50;;;;;;;1.70;0.50;;;;;;;13.05;47.99;101712.81;6130817;23;20348;-86
2023/12/27 04:24:15;;;;;;;0.20;0.20;;;;;;;13.07;47.72;101721.47;6126336;23;20390;-87
2023/12/27 04:26:41;;;;;;;0.33;0.33;;;;;;;13.05;48.08;101720.78;6100720;23;20387;-87
2023/12/27 04:29:10;;;;;;;0.40;0.35;;;;;;;13.00;48.30;101721.28;6103639;23;20364;-88
2023/12/27 04:31:37;;;;;;;0.30;0.30;;;;;;;13.01;48.43;101728.28;6131822;23;20359;-88
2023/12/27 04:34:02;;;;;;;0.40;0.20;;;;;;;13.07;47.96;101732.13;6108859;23;20367;-87
2023/12/27 04:36:28;;;;;;;0.10;0.10;;;;;;;13.13;47.89;101728.81;6131382;23;20380;-88
2023/12/27 04:38:53;;;;;;;0.50;0.40;;;;;;;13.03;48.47;101742.25;6125015;23;20362;-87
2023/12/27 04:41:19;;;;;;;0.25;0.25;;;;;;;12.99;48.37;101739.06;6127832;23;20449;-86
2023/12/27 04:43:45;;;;;;;1.60;0.53;;;;;;;12.97;48.36;101741.06;6106883;23;20976;-86
2023/12/27 04:46:10;;;;;;;0.50;0.50;;;;;;;12.99;48.12;101732.91;6098031;23;20470;-85
2023/12/27 04:48:36;;;;;;;0.38;0.38;;;;;;;13.12;47.93;101740.44;6122648;23;20352;-88
2023/12/27 04:51:02;;;;;;;0.20;0.20;;;;;;;13.00;47.93;101737.28;6124679;23;20451;-83
2023/12/27 04:53:27;;;;;;;0.50;0.50;;;;;;;13.01;48.14;101761.03;6104652;23;20360;-85
2023/12/27 04:55:53;;;;;;;0.50;0.50;;;;;;;12.94;47.95;101761.84;6122691;23;20440;-83
2023/12/27 04:58:18;;;;;;;0.20;0.20;;;;;;;12.94;48.04;101765.31;6134398;23;20431;-85
2023/12/27 05:00:44;;;;;;;0.43;0.43;;;;;;;13.05;47.58;101764.22;6125020;23;20701;-89
2023/12/27 05:03:11;;;;;;;0.30;0.30;;;;;;;13.06;47.82;101765.06;6101385;23;20368;-86
2023/12/27 05:05:36;;;;;;;0.30;0.30;;;;;;;13.06;47.37;101767.72;6105232;23;20418;-89
2023/12/27 05:08:03;;;;;;;0.20;0.20;;;;;;;13.03;47.08;101757.41;6113973;23;20364;-86
2023/12/27 05:10:28;;;;;;;0.30;0.30;;;;;;;13.01;47.09;101753.03;6111637;23;20443;-86
2023/12/27 05:12:54;;;;;;;0.37;0.33;;;;;;;13.07;47.12;101772.91;6136734;23;20356;-85
2023/12/27 05:15:20;;;;;;;0.30;0.30;;;;;;;12.97;46.77;101770.34;6134459;23;20367;-83
2023/12/27 05:17:46;;;;;;;0.40;0.40;;;;;;;13.01;46.89;101760.22;6137004;23;20704;-82
2023/12/27 05:20:13;;;;;;;0.30;0.30;;;;;;;12.98;46.71;101760.53;6125856;23;20511;-86
2023/12/27 05:22:39;;;;;;;0.50;0.50;;;;;;;12.77;46.90;101763.59;6124132;23;20367;-83
2023/12/27 05:25:07;;;;;;;0.20;0.20;;;;;;;12.70;46.66;101762.56;6099687;23;20383;-87
2023/12/27 05:27:33;;;;;;;0.30;0.30;;;;;;;12.73;46.80;101787.03;6097895;23;20374;-86
2023/12/27 05:29:58;;;;;;;0.85;0.85;;;;;;;12.70;46.65;101786.50;6125497;23;20443;-85
2023/12/27 05:32:24;;;;;;;0.10;0.10;;;;;;;12.65;46.67;101799.44;6125002;23;20355;-86
2023/12/27 05:34:52;;;;;;;0.20;0.20;;;;;;;12.72;46.33;101798.66;6124560;23;20352;-86
2023/12/27 05:37:19;;;;;;;0.25;0.25;;;;;;;12.74;46.42;101799.31;6124492;23;20373;-86
2023/12/27 05:39:45;;;;;;;0.17;0.17;;;;;;;12.69;46.44;101798.13;6125865;23;20434;-88
2023/12/27 05:42:13;;;;;;;1.70;0.40;;;;;;;12.88;46.27;101821.03;6099510;23;20399;-89
2023/12/27 05:44:39;;;;;;;0.50;0.35;;;;;;;12.98;46.07;101824.41;6100642;23;20364;-88
2023/12/27 05:47:04;;;;;;;0.30;0.30;;;;;;;12.91;46.37;101826.88;6124739;23;20383;-86
2023/12/27 05:49:30;;;;;;;0.43;0.43;;;;;;;12.91;46.19;101818.03;6124894;23;20384;-86
2023/12/27 05:51:56;;;;;;;0.23;0.23;;;;;;;12.96;46.19;101821.91;6098925;23;20565;-89
2023/12/27 05:54:21;;;;;;;0.40;0.30;;;;;;;12.93;46.12;101824.88;6124704;23;20383;-88
2023/12/27 05:56:47;;;;;;;0.30;0.30;;;;;;;12.90;46.45;101827.03;6124158;23;20839;-86
2023/12/27 05:59:13;;;;;;;0.10;0.10;;;;;;;12.91;46.30;101823.34;6097221;23;20451;-86
2023/12/27 06:01:46;;;;;;;0.25;0.22;;;;;;;12.98;46.28;101841.22;6120942;23;20368;-86
2023/12/27 06:04:14;;;;;;;0.30;0.30;;;;;;;12.90;46.59;101840.34;6126376;23;20485;-86
2023/12/27 06:06:40;;;;;;;0.88;0.88;;;;;;;12.91;46.55;101834.00;6123971;23;20368;-87
2023/12/27 06:09:05;;;;;;;1.23;0.53;;;;;;;13.02;46.32;101841.75;6099406;23;20379;-87
2023/12/27 06:11:31;;;;;;;0.40;0.40;;;;;;;13.08;46.30;101840.28;6099751;23;20487;-87
2023/12/27 06:13:57;;;;;;;0.30;0.30;;;;;;;12.97;46.62;101836.06;6105365;23;20364;-87
2023/12/27 06:16:22;;;;;;;0.40;0.40;;;;;;;13.05;46.43;101843.25;6106397;23;20447;-92
2023/12/27 06:18:49;;;;;;;0.50;0.50;;;;;;;13.03;46.34;101838.06;6118474;23;20360;-91
2023/12/27 06:21:15;;;;;;;0.93;0.52;;;;;;;13.05;46.52;101844.06;6125747;23;20398;-91
2023/12/27 06:23:44;;;;;;;0.17;0.17;;;;;;;13.01;46.80;101838.22;6125467;23;20368;-90
2023/12/27 06:26:11;;;;;;;0.40;0.40;;;;;;;13.01;46.50;101843.53;6151171;23;20375;-92
2023/12/27 06:28:37;;;;;;;0.40;0.40;;;;;;;13.10;46.88;101852.41;6109494;23;20363;-87
2023/12/27 06:31:03;;;;;;;0.10;0.10;;;;;;;13.06;46.90;101861.72;6102380;23;20689;-87
2023/12/27 06:33:31;;;;;;;0.70;0.50;;;;;;;13.06;46.91;101852.91;6128399;23;21191;-89
2023/12/27 06:35:57;;;;;;;0.50;0.40;;;;;;;12.94;47.05;101850.50;6125842;23;20364;-88
2023/12/27 06:38:24;;;;;;;0.30;0.30;;;;;;;12.94;46.92;101860.31;6126804;23;20717;-88
2023/12/27 06:40:50;;;;;;;0.32;0.32;;;;;;;12.97;46.98;101871.47;6127477;23;20360;-88
2023/12/27 06:43:15;;;;;;;0.30;0.30;;;;;;;12.93;46.77;101885.28;6122383;23;20524;-90
2023/12/27 06:45:41;;;;;;;1.20;0.90;;;;;;;12.88;46.70;101887.56;6128178;23;20363;-89
2023/12/27 06:48:07;;;;;;;0.75;0.30;;;;;;;12.79;46.61;101887.50;6098329;23;20410;-91
2023/12/27 06:50:33;;;;;;;0.30;0.30;;;;;;;12.84;46.78;101905.66;6099810;23;20364;-90
2023/12/27 06:52:59;;;;;;;0.20;0.20;;;;;;;12.76;46.89;101909.09;6124042;23;20373;-91
2023/12/27 06:55:25;;;;;;;0.50;0.40;;;;;;;12.81;46.67;101917.44;6132174;23;20824;-91
2023/12/27 06:57:50;;;;;;;0.30;0.30;;;;;;;12.78;46.84;101909.78;6124254;23;20460;-89
2023/12/27 07:00:17;;;;;;;0.10;0.10;;;;;;;12.83;46.81;101911.97;6101745;23;20431;-88
2023/12/27 07:02:42;;;;;;;0.20;0.20;;;;;;;12.89;46.55;101911.38;6104877;23;20362;-88
2023/12/27 07:05:08;;;;;;;0.10;0.10;;;;;;;12.89;46.81;101922.00;6142067;23;20441;-89
2023/12/27 07:07:34;;;;;;;0.50;0.50;;;;;;;12.98;46.63;101917.56;6122879;23;20364;-90
2023/12/27 07:10:01;;;;;;;0.22;0.22;;;;;;;13.00;46.62;101928.91;6112713;23;20374;-88
2023/12/27 07:12:31;;;;;;;0.37;0.37;;;;;;;12.98;46.57;101923.75;6102796;23;20362;-88
2023/12/27 07:15:02;;;;;;;1.20;0.40;;;;;;;13.16;46.52;101934.34;6078516;23;20432;-88
2023/12/27 07:17:28;;;;;;;0.30;0.30;;;;;;;13.18;46.34;101936.81;6124192;23;20384;-87
2023/12/27 07:19:54;;;;;;;1.15;1.10;;;;;;;13.19;46.50;101939.31;6125796;23;20365;-89
2023/12/27 07:22:21;;;;;;;0.60;0.50;;;;;;;13.17;46.08;101943.97;6107021;23;20364;-90
2023/12/27 07:24:48;;;;;;;0.43;0.38;;;;;;;13.33;46.36;101945.09;6111126;23;20366;-89
2023/12/27 07:27:14;;;;;;;0.60;0.60;;;;;;;13.29;46.12;101951.69;6138739;23;20345;-89
2023/12/27 07:29:40;;;;;;;0.20;0.20;;;;;;;13.34;46.42;101955.59;6120214;23;20365;-89
2023/12/27 07:32:06;;;;;;;0.43;0.43;;;;;;;13.46;46.08;101958.81;6104915;23;20368;-88
2023/12/27 07:34:32;;;;;;;0.50;0.50;;;;;;;13.61;46.28;101968.88;6074927;23;20365;-88
2023/12/27 07:36:59;;;;;;;0.70;0.50;;;;;;;13.59;45.87;101969.03;6096438;23;20377;-88
2023/12/27 07:39:25;;;;;;;0.47;0.47;;;;;;;13.57;46.03;101966.53;6072864;23;20877;-88
2023/12/27 07:41:53;;;;;;;0.65;0.55;;;;;;;13.48;45.87;101969.31;6075374;23;20509;-89
2023/12/27 07:44:22;;;;;;;0.82;0.82;;;;;;;13.43;45.94;101963.63;6104931;23;20365;-92
2023/12/27 07:46:48;;;;;;;0.20;0.20;;;;;;;13.39;45.85;101966.59;6125773;23;20714;-90
2023/12/27 07:49:13;;;;;;;0.50;0.50;;;;;;;13.33;45.51;101971.75;6103380;23;20830;-87
2023/12/27 07:51:39;;;;;;;0.82;0.60;;;;;;;13.38;45.24;101967.59;6100097;23;20417;-87
2023/12/27 07:54:05;;;;;;;0.70;0.70;;;;;;;13.55;44.99;101970.34;6102711;23;20350;-87
2023/12/27 07:56:31;;;;;;;1.38;1.27;;;;;;;13.38;45.09;101974.78;6122473;23;20386;-87
2023/12/27 07:58:56;;;;;;;0.43;0.43;;;;;;;13.41;44.91;101963.78;6099716;23;20362;-85
2023/12/27 08:01:23;;;;;;;0.20;0.20;;;;;;;13.54;44.64;101972.19;6123614;23;20441;-88
2023/12/27 08:03:50;;;;;;;0.60;0.60;;;;;;;13.68;44.18;101969.91;6099177;23;20370;-87
2023/12/27 08:06:15;;;;;;;0.52;0.52;;;;;;;13.67;44.09;101969.09;6099723;23;20434;-86
2023/12/27 08:08:41;;;;;;;0.70;0.50;;;;;;;13.74;44.30;101974.63;6098273;23;20687;-86
2023/12/27 08:11:07;;;;;;;0.40;0.40;;;;;;;13.95;43.92;101975.03;6098552;23;20398;-86
2023/12/27 08:13:33;;;;;;;1.70;0.70;;;;;;;13.96;43.86;101973.22;6098477;23;20849;-87
2023/12/27 08:15:59;;;;;;;0.43;0.40;;;;;;;13.98;43.59;101975.72;6121115;23;20405;-89
2023/12/27 08:18:24;;;;;;;0.30;0.30;;;;;;;14.04;43.63;101986.53;6098867;23;20361;-88
2023/12/27 08:20:51;;;;;;;0.30;0.30;;;;;;;13.93;43.87;101981.50;6099544;23;20449;-86
2023/12/27 08:23:17;;;;;;;0.20;0.20;;;;;;;13.97;43.74;101982.84;6123040;23;20877;-86
2023/12/27 08:25:46;;;;;;;0.90;0.40;;;;;;;14.13;43.14;101995.41;6098914;23;20369;-89
2023/12/27 08:28:14;;;;;;;1.40;1.15;;;;;;;14.08;43.17;101981.72;6100073;23;20369;-87
2023/12/27 08:30:41;;;;;;;0.20;0.20;;;;;;;14.05;42.46;101980.22;6098384;23;20358;-87
2023/12/27 08:33:07;;;;;;;0.27;0.27;;;;;;;13.95;42.66;101985.72;6097386;23;20365;-90
2023/12/27 08:35:36;;;;;;;0.60;0.20;;;;;;;14.26;42.38;101986.94;6100956;23;20370;-88
2023/12/27 08:38:06;;;;;;;0.32;0.32;;;;;;;14.41;41.96;101987.16;6103353;23;20384;-89
2023/12/27 08:40:32;;;;;;;0.23;0.23;;;;;;;14.40;41.62;101993.47;6100610;23;20388;-88
2023/12/27 08:42:58;;;;;;;1.40;0.60;;;;;;;14.22;41.29;102002.44;6101197;23;20361;-89
2023/12/27 08:45:24;;;;;;;0.50;0.50;;;;;;;14.29;41.67;101999.97;6075137;23;20941;-88
2023/12/27 08:47:50;;;;;;;0.20;0.20;;;;;;;14.54;41.53;102011.53;6098300;23;20416;-91
2023/12/27 08:50:16;;;;;;;0.20;0.20;;;;;;;14.41;40.75;102020.00;6102214;23;20435;-88
2023/12/27 08:52:42;;;;;;;0.40;0.40;;;;;;;14.42;40.54;102010.16;6097244;23;20442;-88
2023/12/27 08:55:10;;;;;;;0.20;0.20;;;;;;;14.59;40.54;102017.22;6096501;23;20492;-89
2023/12/27 08:57:37;;;;;;;0.45;0.45;;;;;;;14.61;39.98;102012.56;6097842;23;20370;-84
2023/12/27 09:00:15;;;;;;;0.17;0.17;;;;;;;14.79;39.99;102023.09;6095130;23;20972;-87
2023/12/27 09:02:41;;;;;;;0.40;0.40;;;;;;;14.78;40.10;102021.41;6121604;23;20366;-90
2023/12/27 09:05:07;;;;;;;1.55;0.95;;;;;;;14.77;39.80;102027.78;6077522;23;20393;-88
2023/12/27 09:07:33;;;;;;;0.25;0.25;;;;;;;14.69;39.88;102028.59;6095690;23;20701;-89
2023/12/27 09:10:06;;;;;;;0.10;0.10;;;;;;;14.77;39.84;102025.09;6071142;23;20406;-88
2023/12/27 09:12:32;;;;;;;0.10;0.10;;;;;;;15.04;39.93;102018.59;6071302;23;20837;-88
2023/12/27 09:14:58;;;;;;;0.20;0.20;;;;;;;15.12;39.51;102033.78;6072337;23;20433;-89
2023/12/27 09:17:24;;;;;;;0.20;0.20;;;;;;;15.07;39.21;102028.09;6068043;23;20424;-87
2023/12/27 09:19:49;;;;;;;0.20;0.20;;;;;;;15.10;39.29;102019.75;6099970;23;20372;-86
2023/12/27 09:22:15;;;;;;;0.85;0.55;;;;;;;15.24;39.25;102013.72;6097980;23;20365;-85
2023/12/27 09:24:43;;;;;;;0.30;0.30;;;;;;;15.22;38.99;102022.94;6081993;23;20369;-85
2023/12/27 09:27:13;;;;;;;0.40;0.30;;;;;;;15.26;38.99;102034.94;6082747;23;20864;-89
2023/12/27 09:29:39;;;;;;;0.10;0.10;;;;;;;15.43;38.90;102035.75;6101873;23;20440;-88
2023/12/27 09:32:16;;;;;;;2.35;0.82;;;;;;;15.33;38.60;102051.13;6100962;23;20445;-89
2023/12/27 09:34:42;;;;;;;0.10;0.10;;;;;;;15.41;38.73;102043.09;6074585;23;20366;-88
2023/12/27 09:37:15;;;;;;;0.30;0.30;;;;;;;15.23;38.42;102035.28;6073862;23;20389;-88
2023/12/27 09:39:41;;;;;;;0.43;0.43;;;;;;;15.29;38.35;102038.09;6072097;23;20372;-86
2023/12/27 09:42:09;;;;;;;0.10;0.10;;;;;;;15.51;38.06;102034.91;6071500;23;20924;-85
2023/12/27 09:44:37;;;;;;;0.40;0.40;;;;;;;15.41;37.76;102029.75;6075006;23;20369;-87
2023/12/27 09:47:05;;;;;;;0.98;0.65;;;;;;;15.49;37.49;102027.88;6058649;23;20434;-88
2023/12/27 09:49:33;;;;;;;0.68;0.30;;;;;;;15.38;37.60;102032.78;6101760;23;20744;-90
2023/12/27 09:52:01;;;;;;;0.22;0.22;;;;;;;15.07;37.47;102047.66;6069995;23;20385;-87
2023/12/27 09:54:29;;;;;;;0.10;0.10;;;;;;;15.36;37.67;102018.72;6071280;23;20374;-87
2023/12/27 09:57:04;;;;;;;0.20;0.20;;;;;;;15.54;37.37;102023.88;6120106;23;20881;-85
2023/12/27 09:59:38;;;;;;;0.40;0.40;;;;;;;15.46;36.86;102011.38;6116001;23;20361;-86
2023/12/27 10:02:11;;;;;;;0.20;0.20;;;;;;;15.36;37.04;102029.41;6093594;23;20365;-85
2023/12/27 10:05:02;;;;;;;0.40;0.32;;;;;;;15.32;36.72;102020.91;6096302;23;20357;-85
2023/12/27 10:07:38;;;;;;;0.22;0.22;;;;;;;15.33;36.72;102032.44;6097236;23;20368;-88
2023/12/27 10:10:08;;;;;;;0.20;0.20;;;;;;;15.29;36.74;102027.44;6122903;23;20354;-85
2023/12/27 10:12:35;;;;;;;0.30;0.30;;;;;;;15.53;36.25;102025.72;6093721;23;20401;-83
2023/12/27 10:15:01;;;;;;;0.30;0.30;;;;;;;15.47;35.88;102035.25;6068283;23;20373;-86
2023/12/27 10:17:27;;;;;;;0.13;0.13;;;;;;;15.43;35.90;102039.28;6093096;23;20729;-86
2023/12/27 10:19:53;;;;;;;0.10;0.10;;;;;;;15.39;36.17;102037.09;6093114;23;20718;-84
2023/12/27 10:22:19;;;;;;;0.20;0.20;;;;;;;15.53;35.87;102040.91;6092297;23;20371;-89
2023/12/27 10:24:45;;;;;;;0.10;0.10;;;;;;;15.70;35.98;102037.22;6095302;23;20412;-85
2023/12/27 10:27:13;;;;;;;0.30;0.30;;;;;;;15.62;35.59;102038.03;6117299;23;20357;-89
2023/12/27 10:29:46;;;;;;;0.10;0.10;;;;;;;15.55;35.83;102030.88;6114883;23;20372;-86
2023/12/27 10:32:20;;;;;;;0.20;0.20;;;;;;;15.51;35.92;102045.59;6092116;23;20698;-88
2023/12/27 10:34:52;;;;;;;0.10;0.10;;;;;;;15.71;35.83;102030.84;6094430;23;20441;-84
2023/12/27 10:37:18;;;;;;;0.20;0.20;;;;;;;15.78;35.44;102037.19;6090035;23;20698;-85
2023/12/27 10:39:44;;;;;;;0.40;0.40;;;;;;;15.58;35.42;102042.06;6116491;23;20366;-85
2023/12/27 10:42:13;;;;;;;0.40;0.40;;;;;;;15.83;35.40;102015.31;6092276;23;20365;-84
2023/12/27 10:44:38;;;;;;;0.30;0.30;;;;;;;15.82;35.16;102025.16;6092357;23;20425;-85
2023/12/27 10:47:11;;;;;;;0.10;0.10;;;;;;;15.66;35.39;102026.03;6116689;23;20362;-85
2023/12/27 10:49:42;;;;;;;0.10;0.10;;;;;;;15.67;35.69;102038.38;6115636;23;20459;-84
2023/12/27 10:52:08;;;;;;;0.10;0.10;;;;;;;15.88;35.37;102031.66;6092653;23;20369;-85
2023/12/27 10:54:35;;;;;;;0.20;0.20;;;;;;;15.92;35.11;102038.34;6092142;23;20365;-85
2023/12/27 10:57:02;;;;;;;0.20;0.20;;;;;;;15.71;35.29;102025.50;6117658;23;20382;-85
2023/12/27 10:59:30;;;;;;;0.15;0.10;;;;;;;15.70;35.09;102029.19;6090730;23;20369;-87
2023/12/27 11:01:57;;;;;;;0.20;0.20;;;;;;;15.60;35.17;102025.88;6066848;23;20362;-85
2023/12/27 11:04:23;;;;;;;0.20;0.20;;;;;;;15.88;35.29;102025.47;6091468;23;20374;-86
2023/12/27 11:06:51;;;;;;;0.10;0.10;;;;;;;15.69;35.37;102024.84;6091427;23;20382;-85
2023/12/27 11:09:18;;;;;;;0.13;0.13;;;;;;;15.61;35.61;102024.84;6116862;23;20372;-86
2023/12/27 11:11:46;;;;;;;0.20;0.20;;;;;;;15.67;35.33;102016.97;6117390;23;20369;-85
2023/12/27 11:14:24;;;;;;;0.15;0.15;;;;;;;15.77;35.36;102024.84;6070433;23;20401;-84
2023/12/27 11:17:03;;;;;;;0.10;0.10;;;;;;;15.73;35.67;102002.09;6095242;23;20440;-85
2023/12/27 11:19:32;;;;;;;0.30;0.30;;;;;;;15.95;35.76;102010.41;6094720;23;20361;-84
2023/12/27 11:21:57;;;;;;;0.10;0.10;;;;;;;15.97;35.39;102027.97;6094364;23;20365;-86